sensor_id;sensor_type;location;lat;lon;timestamp;temperature;humidity
67182;DHT22;54114;53.524;49.396;2023-04-25T00:02:17;16.60;47.30
67182;DHT22;54114;53.524;49.396;2023-04-25T00:04:49;16.70;47.10
67182;DHT22;54114;53.524;49.396;2023-04-25T00:07:18;16.70;47.00
67182;DHT22;54114;53.524;49.396;2023-04-25T00:09:47;16.80;46.90
67182;DHT22;54114;53.524;49.396;2023-04-25T00:12:23;16.90;46.80
67182;DHT22;54114;53.524;49.396;2023-04-25T00:14:52;16.90;46.60
67182;DHT22;54114;53.524;49.396;2023-04-25T00:17:24;17.00;46.50
67182;DHT22;54114;53.524;49.396;2023-04-25T00:19:56;17.10;46.20
67182;DHT22;54114;53.524;49.396;2023-04-25T00:22:25;17.20;46.10
67182;DHT22;54114;53.524;49.396;2023-04-25T00:24:54;17.20;45.90
67182;DHT22;54114;53.524;49.396;2023-04-25T00:27:26;17.30;45.90
67182;DHT22;54114;53.524;49.396;2023-04-25T00:29:58;17.30;45.70
67182;DHT22;54114;53.524;49.396;2023-04-25T00:32:30;17.40;45.60
67182;DHT22;54114;53.524;49.396;2023-04-25T00:35:03;17.40;45.50
67182;DHT22;54114;53.524;49.396;2023-04-25T00:37:33;17.40;45.40
67182;DHT22;54114;53.524;49.396;2023-04-25T00:40:08;17.50;45.30
67182;DHT22;54114;53.524;49.396;2023-04-25T00:42:37;17.50;45.20
67182;DHT22;54114;53.524;49.396;2023-04-25T00:45:14;17.60;45.10
67182;DHT22;54114;53.524;49.396;2023-04-25T00:47:47;17.60;44.90
67182;DHT22;54114;53.524;49.396;2023-04-25T00:50:14;17.60;44.80
67182;DHT22;54114;53.524;49.396;2023-04-25T00:52:44;17.70;44.80
67182;DHT22;54114;53.524;49.396;2023-04-25T00:55:11;17.70;44.70
67182;DHT22;54114;53.524;49.396;2023-04-25T00:57:42;17.80;44.70
67182;DHT22;54114;53.524;49.396;2023-04-25T01:00:16;17.80;44.60
67182;DHT22;54114;53.524;49.396;2023-04-25T01:02:44;17.90;44.50
67182;DHT22;54114;53.524;49.396;2023-04-25T01:05:16;17.90;44.30
67182;DHT22;54114;53.524;49.396;2023-04-25T01:07:50;18.00;44.30
67182;DHT22;54114;53.524;49.396;2023-04-25T01:10:19;18.00;44.20
67182;DHT22;54114;53.524;49.396;2023-04-25T01:12:55;18.00;44.20
67182;DHT22;54114;53.524;49.396;2023-04-25T01:15:26;18.00;44.20
67182;DHT22;54114;53.524;49.396;2023-04-25T01:17:58;18.00;44.30
67182;DHT22;54114;53.524;49.396;2023-04-25T01:20:29;18.00;44.20
67182;DHT22;54114;53.524;49.396;2023-04-25T01:23:03;18.00;44.30
67182;DHT22;54114;53.524;49.396;2023-04-25T01:25:35;17.90;44.20
67182;DHT22;54114;53.524;49.396;2023-04-25T01:28:09;18.00;44.30
67182;DHT22;54114;53.524;49.396;2023-04-25T01:30:41;18.00;44.30
67182;DHT22;54114;53.524;49.396;2023-04-25T01:33:11;18.00;44.30
67182;DHT22;54114;53.524;49.396;2023-04-25T01:35:41;18.00;44.30
67182;DHT22;54114;53.524;49.396;2023-04-25T01:38:15;18.00;44.20
67182;DHT22;54114;53.524;49.396;2023-04-25T01:40:49;18.00;44.30
67182;DHT22;54114;53.524;49.396;2023-04-25T01:43:19;18.00;44.30
67182;DHT22;54114;53.524;49.396;2023-04-25T01:45:52;18.00;44.30
67182;DHT22;54114;53.524;49.396;2023-04-25T01:48:27;18.00;44.30
67182;DHT22;54114;53.524;49.396;2023-04-25T01:50:57;18.00;44.40
67182;DHT22;54114;53.524;49.396;2023-04-25T01:53:26;18.00;44.40
67182;DHT22;54114;53.524;49.396;2023-04-25T01:55:58;18.00;44.50
67182;DHT22;54114;53.524;49.396;2023-04-25T01:58:32;18.00;44.60
67182;DHT22;54114;53.524;49.396;2023-04-25T02:00:58;18.00;44.70
67182;DHT22;54114;53.524;49.396;2023-04-25T02:03:28;18.00;44.70
67182;DHT22;54114;53.524;49.396;2023-04-25T02:06:01;18.00;44.70
67182;DHT22;54114;53.524;49.396;2023-04-25T02:08:32;18.00;44.70
67182;DHT22;54114;53.524;49.396;2023-04-25T02:11:05;18.00;44.80
67182;DHT22;54114;53.524;49.396;2023-04-25T02:13:34;18.10;44.90
67182;DHT22;54114;53.524;49.396;2023-04-25T02:16:08;18.10;44.80
67182;DHT22;54114;53.524;49.396;2023-04-25T02:18:41;18.10;44.80
67182;DHT22;54114;53.524;49.396;2023-04-25T02:21:11;18.20;44.90
67182;DHT22;54114;53.524;49.396;2023-04-25T02:23:43;18.20;45.00
67182;DHT22;54114;53.524;49.396;2023-04-25T02:26:16;18.30;45.20
67182;DHT22;54114;53.524;49.396;2023-04-25T02:28:49;18.30;45.20
67182;DHT22;54114;53.524;49.396;2023-04-25T02:31:17;18.40;45.30
67182;DHT22;54114;53.524;49.396;2023-04-25T02:33:47;18.40;45.40
67182;DHT22;54114;53.524;49.396;2023-04-25T02:36:23;18.40;45.50
67182;DHT22;54114;53.524;49.396;2023-04-25T02:38:49;18.40;45.70
67182;DHT22;54114;53.524;49.396;2023-04-25T02:41:18;18.50;46.00
67182;DHT22;54114;53.524;49.396;2023-04-25T02:43:48;18.50;46.30
67182;DHT22;54114;53.524;49.396;2023-04-25T02:46:23;18.50;46.60
67182;DHT22;54114;53.524;49.396;2023-04-25T02:48:54;18.60;46.80
67182;DHT22;54114;53.524;49.396;2023-04-25T02:51:23;18.60;46.80
67182;DHT22;54114;53.524;49.396;2023-04-25T02:53:55;18.60;46.70
67182;DHT22;54114;53.524;49.396;2023-04-25T02:56:28;18.70;46.70
67182;DHT22;54114;53.524;49.396;2023-04-25T02:59:00;18.80;46.60
67182;DHT22;54114;53.524;49.396;2023-04-25T03:01:31;18.90;46.60
67182;DHT22;54114;53.524;49.396;2023-04-25T03:04:02;18.90;46.60
67182;DHT22;54114;53.524;49.396;2023-04-25T03:06:35;18.90;46.70
67182;DHT22;54114;53.524;49.396;2023-04-25T03:09:04;19.00;46.80
67182;DHT22;54114;53.524;49.396;2023-04-25T03:11:33;19.00;46.80
67182;DHT22;54114;53.524;49.396;2023-04-25T03:14:08;19.10;46.90
67182;DHT22;54114;53.524;49.396;2023-04-25T03:16:36;19.20;47.10
67182;DHT22;54114;53.524;49.396;2023-04-25T03:19:08;19.20;47.20
67182;DHT22;54114;53.524;49.396;2023-04-25T03:21:40;19.20;47.30
67182;DHT22;54114;53.524;49.396;2023-04-25T03:24:12;19.20;47.40
67182;DHT22;54114;53.524;49.396;2023-04-25T03:26:39;19.20;47.40
67182;DHT22;54114;53.524;49.396;2023-04-25T03:29:08;19.30;47.30
67182;DHT22;54114;53.524;49.396;2023-04-25T03:31:41;19.30;47.00
67182;DHT22;54114;53.524;49.396;2023-04-25T03:34:08;19.30;46.70
67182;DHT22;54114;53.524;49.396;2023-04-25T03:36:42;19.40;46.50
67182;DHT22;54114;53.524;49.396;2023-04-25T03:39:12;19.30;46.30
67182;DHT22;54114;53.524;49.396;2023-04-25T03:41:41;19.30;46.70
67182;DHT22;54114;53.524;49.396;2023-04-25T03:44:12;19.30;47.00
67182;DHT22;54114;53.524;49.396;2023-04-25T03:46:44;19.30;47.10
67182;DHT22;54114;53.524;49.396;2023-04-25T03:49:13;19.30;47.00
67182;DHT22;54114;53.524;49.396;2023-04-25T03:51:42;19.40;47.00
67182;DHT22;54114;53.524;49.396;2023-04-25T03:54:09;19.40;46.90
67182;DHT22;54114;53.524;49.396;2023-04-25T03:56:36;19.50;46.80
67182;DHT22;54114;53.524;49.396;2023-04-25T03:59:03;19.50;46.80
67182;DHT22;54114;53.524;49.396;2023-04-25T04:01:34;19.50;47.50
67182;DHT22;54114;53.524;49.396;2023-04-25T04:04:04;19.60;46.70
67182;DHT22;54114;53.524;49.396;2023-04-25T04:06:31;19.60;46.60
67182;DHT22;54114;53.524;49.396;2023-04-25T04:09:00;19.70;46.40
67182;DHT22;54114;53.524;49.396;2023-04-25T04:11:26;19.70;46.50
67182;DHT22;54114;53.524;49.396;2023-04-25T04:13:53;19.90;46.80
67182;DHT22;54114;53.524;49.396;2023-04-25T04:16:20;20.00;46.90
67182;DHT22;54114;53.524;49.396;2023-04-25T04:18:49;20.20;46.80
67182;DHT22;54114;53.524;49.396;2023-04-25T04:21:16;20.40;46.50
67182;DHT22;54114;53.524;49.396;2023-04-25T04:23:42;20.50;46.40
67182;DHT22;54114;53.524;49.396;2023-04-25T04:26:12;20.60;46.20
67182;DHT22;54114;53.524;49.396;2023-04-25T04:28:39;20.60;46.30
67182;DHT22;54114;53.524;49.396;2023-04-25T04:31:10;20.60;46.30
67182;DHT22;54114;53.524;49.396;2023-04-25T04:33:39;20.60;45.80
67182;DHT22;54114;53.524;49.396;2023-04-25T04:36:08;20.70;45.50
67182;DHT22;54114;53.524;49.396;2023-04-25T04:38:41;20.70;45.20
67182;DHT22;54114;53.524;49.396;2023-04-25T04:41:08;20.80;44.80
67182;DHT22;54114;53.524;49.396;2023-04-25T04:43:35;20.80;44.40
67182;DHT22;54114;53.524;49.396;2023-04-25T04:46:02;20.90;44.10
67182;DHT22;54114;53.524;49.396;2023-04-25T04:48:31;21.00;44.00
67182;DHT22;54114;53.524;49.396;2023-04-25T04:51:03;21.00;43.50
67182;DHT22;54114;53.524;49.396;2023-04-25T04:53:32;21.00;43.30
67182;DHT22;54114;53.524;49.396;2023-04-25T04:56:01;21.10;43.20
67182;DHT22;54114;53.524;49.396;2023-04-25T04:58:30;21.20;43.10
67182;DHT22;54114;53.524;49.396;2023-04-25T05:00:59;21.30;42.90
67182;DHT22;54114;53.524;49.396;2023-04-25T05:03:31;21.50;42.80
67182;DHT22;54114;53.524;49.396;2023-04-25T05:05:58;21.70;42.50
67182;DHT22;54114;53.524;49.396;2023-04-25T05:08:24;21.90;42.20
67182;DHT22;54114;53.524;49.396;2023-04-25T05:10:54;22.10;41.70
67182;DHT22;54114;53.524;49.396;2023-04-25T05:13:25;22.40;41.30
67182;DHT22;54114;53.524;49.396;2023-04-25T05:15:55;22.60;40.80
67182;DHT22;54114;53.524;49.396;2023-04-25T05:18:21;22.70;40.60
67182;DHT22;54114;53.524;49.396;2023-04-25T05:20:48;22.90;40.30
67182;DHT22;54114;53.524;49.396;2023-04-25T05:23:15;23.10;39.90
67182;DHT22;54114;53.524;49.396;2023-04-25T05:25:42;23.20;39.40
67182;DHT22;54114;53.524;49.396;2023-04-25T05:28:10;23.30;39.00
67182;DHT22;54114;53.524;49.396;2023-04-25T05:30:38;23.30;38.90
67182;DHT22;54114;53.524;49.396;2023-04-25T05:33:08;23.40;38.90
67182;DHT22;54114;53.524;49.396;2023-04-25T05:35:35;23.50;38.70
67182;DHT22;54114;53.524;49.396;2023-04-25T05:38:01;23.60;38.60
67182;DHT22;54114;53.524;49.396;2023-04-25T05:40:28;23.60;38.50
67182;DHT22;54114;53.524;49.396;2023-04-25T05:42:55;23.70;38.30
67182;DHT22;54114;53.524;49.396;2023-04-25T05:45:21;23.80;38.00
67182;DHT22;54114;53.524;49.396;2023-04-25T05:47:48;23.90;37.80
67182;DHT22;54114;53.524;49.396;2023-04-25T05:50:14;24.00;37.50
67182;DHT22;54114;53.524;49.396;2023-04-25T05:52:41;24.20;37.40
67182;DHT22;54114;53.524;49.396;2023-04-25T05:55:08;24.30;37.20
67182;DHT22;54114;53.524;49.396;2023-04-25T05:57:35;24.30;37.10
67182;DHT22;54114;53.524;49.396;2023-04-25T06:00:02;24.40;37.00
67182;DHT22;54114;53.524;49.396;2023-04-25T06:02:34;24.40;36.90
67182;DHT22;54114;53.524;49.396;2023-04-25T06:05:01;24.50;36.90
67182;DHT22;54114;53.524;49.396;2023-04-25T06:07:31;24.50;36.80
67182;DHT22;54114;53.524;49.396;2023-04-25T06:09:57;24.60;36.70
67182;DHT22;54114;53.524;49.396;2023-04-25T06:12:25;24.70;36.60
67182;DHT22;54114;53.524;49.396;2023-04-25T06:14:52;24.80;36.40
67182;DHT22;54114;53.524;49.396;2023-04-25T06:17:21;24.90;36.10
67182;DHT22;54114;53.524;49.396;2023-04-25T06:19:47;25.10;36.10
67182;DHT22;54114;53.524;49.396;2023-04-25T06:22:14;25.10;35.90
67182;DHT22;54114;53.524;49.396;2023-04-25T06:24:41;25.20;35.80
67182;DHT22;54114;53.524;49.396;2023-04-25T06:27:07;25.20;35.70
67182;DHT22;54114;53.524;49.396;2023-04-25T06:29:34;25.30;35.70
67182;DHT22;54114;53.524;49.396;2023-04-25T06:32:01;25.40;35.70
67182;DHT22;54114;53.524;49.396;2023-04-25T06:34:27;25.40;35.50
67182;DHT22;54114;53.524;49.396;2023-04-25T06:36:54;25.40;35.40
67182;DHT22;54114;53.524;49.396;2023-04-25T06:39:20;25.30;35.70
67182;DHT22;54114;53.524;49.396;2023-04-25T06:41:49;25.30;35.90
67182;DHT22;54114;53.524;49.396;2023-04-25T06:44:16;25.30;35.90
67182;DHT22;54114;53.524;49.396;2023-04-25T06:46:42;25.30;35.80
67182;DHT22;54114;53.524;49.396;2023-04-25T06:49:09;25.30;35.80
67182;DHT22;54114;53.524;49.396;2023-04-25T06:51:35;25.30;35.80
67182;DHT22;54114;53.524;49.396;2023-04-25T06:54:02;25.40;35.80
67182;DHT22;54114;53.524;49.396;2023-04-25T06:56:31;25.30;35.90
67182;DHT22;54114;53.524;49.396;2023-04-25T06:58:57;25.30;36.10
67182;DHT22;54114;53.524;49.396;2023-04-25T07:01:28;25.30;36.50
67182;DHT22;54114;53.524;49.396;2023-04-25T07:03:55;25.20;36.70
67182;DHT22;54114;53.524;49.396;2023-04-25T07:06:24;25.20;36.90
67182;DHT22;54114;53.524;49.396;2023-04-25T07:08:51;25.10;37.20
67182;DHT22;54114;53.524;49.396;2023-04-25T07:11:18;25.00;37.70
67182;DHT22;54114;53.524;49.396;2023-04-25T07:13:45;24.90;38.30
67182;DHT22;54114;53.524;49.396;2023-04-25T07:16:11;24.80;39.10
67182;DHT22;54114;53.524;49.396;2023-04-25T07:18:40;24.70;39.40
67182;DHT22;54114;53.524;49.396;2023-04-25T07:21:11;24.70;39.70
67182;DHT22;54114;53.524;49.396;2023-04-25T07:23:38;24.70;40.00
67182;DHT22;54114;53.524;49.396;2023-04-25T07:26:06;24.80;39.60
67182;DHT22;54114;53.524;49.396;2023-04-25T07:28:33;24.90;39.10
67182;DHT22;54114;53.524;49.396;2023-04-25T07:31:00;24.90;39.00
67182;DHT22;54114;53.524;49.396;2023-04-25T07:33:33;25.00;38.90
67182;DHT22;54114;53.524;49.396;2023-04-25T07:35:59;25.00;38.70
67182;DHT22;54114;53.524;49.396;2023-04-25T07:38:26;25.10;38.60
67182;DHT22;54114;53.524;49.396;2023-04-25T07:40:53;25.10;38.50
67182;DHT22;54114;53.524;49.396;2023-04-25T07:43:22;25.10;38.40
67182;DHT22;54114;53.524;49.396;2023-04-25T07:45:49;25.20;38.20
67182;DHT22;54114;53.524;49.396;2023-04-25T07:48:18;25.20;37.90
67182;DHT22;54114;53.524;49.396;2023-04-25T07:50:45;25.20;37.70
67182;DHT22;54114;53.524;49.396;2023-04-25T07:53:15;25.30;37.50
67182;DHT22;54114;53.524;49.396;2023-04-25T07:55:43;25.30;37.40
67182;DHT22;54114;53.524;49.396;2023-04-25T07:58:11;25.40;37.30
67182;DHT22;54114;53.524;49.396;2023-04-25T08:00:45;25.40;37.10
67182;DHT22;54114;53.524;49.396;2023-04-25T08:03:14;25.30;36.70
67182;DHT22;54114;53.524;49.396;2023-04-25T08:05:41;25.20;37.00
67182;DHT22;54114;53.524;49.396;2023-04-25T08:08:08;25.20;37.00
67182;DHT22;54114;53.524;49.396;2023-04-25T08:10:37;25.20;36.90
67182;DHT22;54114;53.524;49.396;2023-04-25T08:13:03;25.20;36.80
67182;DHT22;54114;53.524;49.396;2023-04-25T08:15:30;25.20;36.60
67182;DHT22;54114;53.524;49.396;2023-04-25T08:17:56;25.20;36.50
67182;DHT22;54114;53.524;49.396;2023-04-25T08:20:23;25.20;36.40
67182;DHT22;54114;53.524;49.396;2023-04-25T08:22:50;25.30;36.20
67182;DHT22;54114;53.524;49.396;2023-04-25T08:25:17;25.20;36.10
67182;DHT22;54114;53.524;49.396;2023-04-25T08:27:46;25.20;35.90
67182;DHT22;54114;53.524;49.396;2023-04-25T08:30:16;25.20;36.00
67182;DHT22;54114;53.524;49.396;2023-04-25T08:32:42;25.20;36.10
67182;DHT22;54114;53.524;49.396;2023-04-25T08:35:09;25.10;36.10
67182;DHT22;54114;53.524;49.396;2023-04-25T08:37:36;25.00;36.20
67182;DHT22;54114;53.524;49.396;2023-04-25T08:40:04;25.20;36.50
67182;DHT22;54114;53.524;49.396;2023-04-25T08:42:33;25.10;36.50
67182;DHT22;54114;53.524;49.396;2023-04-25T08:45:04;25.20;36.50
67182;DHT22;54114;53.524;49.396;2023-04-25T08:47:39;25.10;36.50
67182;DHT22;54114;53.524;49.396;2023-04-25T08:50:07;25.10;36.60
67182;DHT22;54114;53.524;49.396;2023-04-25T08:52:44;25.10;36.70
67182;DHT22;54114;53.524;49.396;2023-04-25T08:55:17;25.10;36.90
67182;DHT22;54114;53.524;49.396;2023-04-25T08:57:45;25.00;37.00
67182;DHT22;54114;53.524;49.396;2023-04-25T09:00:17;25.00;37.10
67182;DHT22;54114;53.524;49.396;2023-04-25T09:02:52;25.00;37.20
67182;DHT22;54114;53.524;49.396;2023-04-25T09:05:23;25.10;37.40
67182;DHT22;54114;53.524;49.396;2023-04-25T09:07:52;25.00;37.40
67182;DHT22;54114;53.524;49.396;2023-04-25T09:10:22;25.10;37.40
67182;DHT22;54114;53.524;49.396;2023-04-25T09:13:10;25.20;37.50
67182;DHT22;54114;53.524;49.396;2023-04-25T09:15:51;25.30;37.40
67182;DHT22;54114;53.524;49.396;2023-04-25T09:18:30;25.40;37.40
67182;DHT22;54114;53.524;49.396;2023-04-25T09:21:08;25.50;37.30
67182;DHT22;54114;53.524;49.396;2023-04-25T09:26:14;25.60;37.10
67182;DHT22;54114;53.524;49.396;2023-04-25T09:28:43;25.60;37.20
67182;DHT22;54114;53.524;49.396;2023-04-25T09:31:20;25.70;37.30
67182;DHT22;54114;53.524;49.396;2023-04-25T09:34:01;25.60;37.50
67182;DHT22;54114;53.524;49.396;2023-04-25T09:36:31;25.60;37.60
67182;DHT22;54114;53.524;49.396;2023-04-25T09:39:00;25.50;37.70
67182;DHT22;54114;53.524;49.396;2023-04-25T09:41:29;25.50;37.80
67182;DHT22;54114;53.524;49.396;2023-04-25T09:43:59;25.50;38.20
67182;DHT22;54114;53.524;49.396;2023-04-25T09:46:32;25.40;38.30
67182;DHT22;54114;53.524;49.396;2023-04-25T09:49:10;25.40;38.50
67182;DHT22;54114;53.524;49.396;2023-04-25T09:51:39;25.30;38.70
67182;DHT22;54114;53.524;49.396;2023-04-25T09:54:10;25.20;38.50
67182;DHT22;54114;53.524;49.396;2023-04-25T09:56:37;25.20;38.70
67182;DHT22;54114;53.524;49.396;2023-04-25T09:59:05;25.10;38.80
67182;DHT22;54114;53.524;49.396;2023-04-25T10:01:42;25.10;39.10
67182;DHT22;54114;53.524;49.396;2023-04-25T10:04:11;25.00;39.00
67182;DHT22;54114;53.524;49.396;2023-04-25T10:06:38;24.90;38.90
67182;DHT22;54114;53.524;49.396;2023-04-25T10:09:07;24.80;38.60
67182;DHT22;54114;53.524;49.396;2023-04-25T10:11:34;24.70;38.60
67182;DHT22;54114;53.524;49.396;2023-04-25T10:14:01;24.50;38.50
67182;DHT22;54114;53.524;49.396;2023-04-25T10:16:31;24.30;38.80
67182;DHT22;54114;53.524;49.396;2023-04-25T10:19:01;24.20;39.20
67182;DHT22;54114;53.524;49.396;2023-04-25T10:21:32;24.00;39.90
67182;DHT22;54114;53.524;49.396;2023-04-25T10:24:02;23.80;40.70
67182;DHT22;54114;53.524;49.396;2023-04-25T10:26:29;23.60;41.40
67182;DHT22;54114;53.524;49.396;2023-04-25T10:28:59;23.50;42.10
67182;DHT22;54114;53.524;49.396;2023-04-25T10:31:29;23.30;42.80
67182;DHT22;54114;53.524;49.396;2023-04-25T10:33:56;23.20;43.40
67182;DHT22;54114;53.524;49.396;2023-04-25T10:36:26;23.00;44.00
67182;DHT22;54114;53.524;49.396;2023-04-25T10:39:04;22.80;44.50
67182;DHT22;54114;53.524;49.396;2023-04-25T10:41:51;22.60;45.20
67182;DHT22;54114;53.524;49.396;2023-04-25T10:44:19;22.40;45.70
67182;DHT22;54114;53.524;49.396;2023-04-25T10:46:46;22.30;46.10
67182;DHT22;54114;53.524;49.396;2023-04-25T10:49:35;22.20;46.30
67182;DHT22;54114;53.524;49.396;2023-04-25T10:54:56;22.30;46.30
67182;DHT22;54114;53.524;49.396;2023-04-25T11:00:13;22.30;46.30
67182;DHT22;54114;53.524;49.396;2023-04-25T11:02:46;22.30;46.20
67182;DHT22;54114;53.524;49.396;2023-04-25T11:05:23;22.30;46.90
67182;DHT22;54114;53.524;49.396;2023-04-25T11:07:58;22.30;46.30
67182;DHT22;54114;53.524;49.396;2023-04-25T11:10:34;22.30;46.30
67182;DHT22;54114;53.524;49.396;2023-04-25T11:13:02;22.40;46.30
67182;DHT22;54114;53.524;49.396;2023-04-25T11:15:29;22.40;46.20
67182;DHT22;54114;53.524;49.396;2023-04-25T11:18:00;22.40;46.10
67182;DHT22;54114;53.524;49.396;2023-04-25T11:20:29;22.50;46.30
67182;DHT22;54114;53.524;49.396;2023-04-25T11:23:01;22.40;46.40
67182;DHT22;54114;53.524;49.396;2023-04-25T11:25:29;22.50;46.70
67182;DHT22;54114;53.524;49.396;2023-04-25T11:27:59;22.50;46.80
67182;DHT22;54114;53.524;49.396;2023-04-25T11:30:28;22.50;47.00
67182;DHT22;54114;53.524;49.396;2023-04-25T11:32:56;22.50;47.00
67182;DHT22;54114;53.524;49.396;2023-04-25T11:35:23;22.50;47.20
67182;DHT22;54114;53.524;49.396;2023-04-25T11:37:51;22.50;47.40
67182;DHT22;54114;53.524;49.396;2023-04-25T11:40:18;22.50;47.60
67182;DHT22;54114;53.524;49.396;2023-04-25T11:42:46;22.50;47.40
67182;DHT22;54114;53.524;49.396;2023-04-25T11:45:14;22.40;47.40
67182;DHT22;54114;53.524;49.396;2023-04-25T11:47:43;22.30;47.60
67182;DHT22;54114;53.524;49.396;2023-04-25T11:50:10;22.30;47.90
67182;DHT22;54114;53.524;49.396;2023-04-25T11:52:39;22.30;47.80
67182;DHT22;54114;53.524;49.396;2023-04-25T11:55:08;22.30;48.00
67182;DHT22;54114;53.524;49.396;2023-04-25T11:57:38;22.40;47.90
67182;DHT22;54114;53.524;49.396;2023-04-25T12:00:14;22.40;47.90
67182;DHT22;54114;53.524;49.396;2023-04-25T12:02:55;22.30;48.20
67182;DHT22;54114;53.524;49.396;2023-04-25T12:05:25;22.30;48.40
67182;DHT22;54114;53.524;49.396;2023-04-25T12:07:54;22.30;48.90
67182;DHT22;54114;53.524;49.396;2023-04-25T12:10:21;22.30;48.30
67182;DHT22;54114;53.524;49.396;2023-04-25T12:12:50;22.40;48.00
67182;DHT22;54114;53.524;49.396;2023-04-25T12:15:23;22.50;47.80
67182;DHT22;54114;53.524;49.396;2023-04-25T12:17:54;22.50;47.90
67182;DHT22;54114;53.524;49.396;2023-04-25T12:20:31;22.60;48.10
67182;DHT22;54114;53.524;49.396;2023-04-25T12:23:00;22.60;48.10
67182;DHT22;54114;53.524;49.396;2023-04-25T12:25:45;22.60;48.10
67182;DHT22;54114;53.524;49.396;2023-04-25T12:30:54;22.80;48.10
67182;DHT22;54114;53.524;49.396;2023-04-25T12:33:26;22.90;48.40
67182;DHT22;54114;53.524;49.396;2023-04-25T12:36:01;22.90;48.40
67182;DHT22;54114;53.524;49.396;2023-04-25T12:38:41;22.80;48.40
67182;DHT22;54114;53.524;49.396;2023-04-25T12:41:09;22.70;48.80
67182;DHT22;54114;53.524;49.396;2023-04-25T12:43:36;22.70;49.20
67182;DHT22;54114;53.524;49.396;2023-04-25T12:46:03;22.50;49.70
67182;DHT22;54114;53.524;49.396;2023-04-25T12:48:29;22.40;50.30
67182;DHT22;54114;53.524;49.396;2023-04-25T12:50:59;22.20;50.70
67182;DHT22;54114;53.524;49.396;2023-04-25T12:53:26;22.10;51.40
67182;DHT22;54114;53.524;49.396;2023-04-25T12:55:52;22.00;51.90
67182;DHT22;54114;53.524;49.396;2023-04-25T12:58:21;21.90;52.40
67182;DHT22;54114;53.524;49.396;2023-04-25T13:00:51;21.70;52.90
67182;DHT22;54114;53.524;49.396;2023-04-25T13:03:21;21.70;53.40
67182;DHT22;54114;53.524;49.396;2023-04-25T13:05:48;21.50;53.50
67182;DHT22;54114;53.524;49.396;2023-04-25T13:08:20;21.50;53.90
67182;DHT22;54114;53.524;49.396;2023-04-25T13:10:50;21.50;54.00
67182;DHT22;54114;53.524;49.396;2023-04-25T13:13:21;21.50;54.00
67182;DHT22;54114;53.524;49.396;2023-04-25T13:15:50;21.50;54.20
67182;DHT22;54114;53.524;49.396;2023-04-25T13:18:17;21.50;54.40
67182;DHT22;54114;53.524;49.396;2023-04-25T13:20:44;21.50;54.60
67182;DHT22;54114;53.524;49.396;2023-04-25T13:23:14;21.50;54.70
67182;DHT22;54114;53.524;49.396;2023-04-25T13:25:43;21.50;54.70
67182;DHT22;54114;53.524;49.396;2023-04-25T13:28:10;21.50;54.70
67182;DHT22;54114;53.524;49.396;2023-04-25T13:30:39;21.50;55.50
67182;DHT22;54114;53.524;49.396;2023-04-25T13:33:06;21.50;55.20
67182;DHT22;54114;53.524;49.396;2023-04-25T13:35:38;21.50;55.30
67182;DHT22;54114;53.524;49.396;2023-04-25T13:38:07;21.50;55.50
67182;DHT22;54114;53.524;49.396;2023-04-25T13:40:35;21.50;55.50
67182;DHT22;54114;53.524;49.396;2023-04-25T13:43:05;21.50;56.20
67182;DHT22;54114;53.524;49.396;2023-04-25T13:45:34;21.50;55.60
67182;DHT22;54114;53.524;49.396;2023-04-25T13:48:03;21.50;55.80
67182;DHT22;54114;53.524;49.396;2023-04-25T13:50:30;21.30;56.00
67182;DHT22;54114;53.524;49.396;2023-04-25T13:52:59;21.20;56.20
67182;DHT22;54114;53.524;49.396;2023-04-25T13:55:28;21.10;56.40
67182;DHT22;54114;53.524;49.396;2023-04-25T13:58:01;21.10;56.70
67182;DHT22;54114;53.524;49.396;2023-04-25T14:00:37;21.00;56.90
67182;DHT22;54114;53.524;49.396;2023-04-25T14:03:04;21.00;57.10
67182;DHT22;54114;53.524;49.396;2023-04-25T14:05:33;21.00;57.40
67182;DHT22;54114;53.524;49.396;2023-04-25T14:08:07;20.90;57.80
67182;DHT22;54114;53.524;49.396;2023-04-25T14:10:39;20.80;58.40
67182;DHT22;54114;53.524;49.396;2023-04-25T14:13:13;20.80;58.80
67182;DHT22;54114;53.524;49.396;2023-04-25T14:15:39;20.70;59.20
67182;DHT22;54114;53.524;49.396;2023-04-25T14:18:09;20.60;59.50
67182;DHT22;54114;53.524;49.396;2023-04-25T14:20:38;20.50;59.80
67182;DHT22;54114;53.524;49.396;2023-04-25T14:23:05;20.50;59.90
67182;DHT22;54114;53.524;49.396;2023-04-25T14:25:32;20.40;60.00
67182;DHT22;54114;53.524;49.396;2023-04-25T14:28:00;20.40;60.20
67182;DHT22;54114;53.524;49.396;2023-04-25T14:30:27;20.30;60.00
67182;DHT22;54114;53.524;49.396;2023-04-25T14:32:56;20.30;60.00
67182;DHT22;54114;53.524;49.396;2023-04-25T14:35:23;20.10;60.20
67182;DHT22;54114;53.524;49.396;2023-04-25T14:37:56;20.00;60.70
67182;DHT22;54114;53.524;49.396;2023-04-25T14:40:25;20.00;61.40
67182;DHT22;54114;53.524;49.396;2023-04-25T14:42:54;20.00;61.60
67182;DHT22;54114;53.524;49.396;2023-04-25T14:45:21;20.00;62.00
67182;DHT22;54114;53.524;49.396;2023-04-25T14:47:48;20.00;62.10
67182;DHT22;54114;53.524;49.396;2023-04-25T14:50:15;20.00;62.40
67182;DHT22;54114;53.524;49.396;2023-04-25T14:52:41;19.90;62.60
67182;DHT22;54114;53.524;49.396;2023-04-25T14:55:09;19.90;62.80
67182;DHT22;54114;53.524;49.396;2023-04-25T14:57:35;19.90;62.90
67182;DHT22;54114;53.524;49.396;2023-04-25T15:00:03;19.80;62.80
67182;DHT22;54114;53.524;49.396;2023-04-25T15:02:36;19.70;62.90
67182;DHT22;54114;53.524;49.396;2023-04-25T15:05:03;19.60;62.80
67182;DHT22;54114;53.524;49.396;2023-04-25T15:07:32;19.50;63.30
67182;DHT22;54114;53.524;49.396;2023-04-25T15:10:03;19.40;63.60
67182;DHT22;54114;53.524;49.396;2023-04-25T15:12:36;19.30;63.70
67182;DHT22;54114;53.524;49.396;2023-04-25T15:15:06;19.20;64.00
67182;DHT22;54114;53.524;49.396;2023-04-25T15:17:41;19.10;64.30
67182;DHT22;54114;53.524;49.396;2023-04-25T15:20:14;19.00;64.60
67182;DHT22;54114;53.524;49.396;2023-04-25T15:22:44;18.80;64.80
67182;DHT22;54114;53.524;49.396;2023-04-25T15:25:11;18.80;65.10
67182;DHT22;54114;53.524;49.396;2023-04-25T15:27:39;18.70;65.20
67182;DHT22;54114;53.524;49.396;2023-04-25T15:30:16;18.60;65.60
67182;DHT22;54114;53.524;49.396;2023-04-25T15:32:48;18.50;66.00
67182;DHT22;54114;53.524;49.396;2023-04-25T15:35:15;18.40;66.30
67182;DHT22;54114;53.524;49.396;2023-04-25T15:37:42;18.30;66.60
67182;DHT22;54114;53.524;49.396;2023-04-25T15:40:14;18.30;66.80
67182;DHT22;54114;53.524;49.396;2023-04-25T15:42:45;18.30;66.90